sensor_id;sensor_type;location;lat;lon;timestamp;pressure;altitude;pressure_sealevel;temperature;humidity
7200;BME280;3641;49.082;8.200;2023-03-05T00:02:04;100776.50;;;3.56;70.44
7200;BME280;3641;49.082;8.200;2023-03-05T00:04:31;100775.22;;;3.39;70.59
7200;BME280;3641;49.082;8.200;2023-03-05T00:06:58;100774.97;;;3.42;70.90
7200;BME280;3641;49.082;8.200;2023-03-05T00:09:24;100780.94;;;3.45;70.82
7200;BME280;3641;49.082;8.200;2023-03-05T00:11:52;100773.44;;;3.49;70.09
7200;BME280;3641;49.082;8.200;2023-03-05T00:14:18;100769.34;;;3.34;71.41
7200;BME280;3641;49.082;8.200;2023-03-05T00:16:45;100771.69;;;3.27;71.82
7200;BME280;3641;49.082;8.200;2023-03-05T00:19:11;100778.25;;;3.45;70.55
7200;BME280;3641;49.082;8.200;2023-03-05T00:21:40;100774.84;;;3.43;71.35
7200;BME280;3641;49.082;8.200;2023-03-05T00:24:10;100776.09;;;3.28;71.88
7200;BME280;3641;49.082;8.200;2023-03-05T00:26:38;100772.47;;;3.18;72.39
7200;BME280;3641;49.082;8.200;2023-03-05T00:29:05;100775.25;;;3.27;72.55
7200;BME280;3641;49.082;8.200;2023-03-05T00:31:33;100759.94;;;3.49;70.79
7200;BME280;3641;49.082;8.200;2023-03-05T00:34:02;100760.25;;;3.35;72.04
7200;BME280;3641;49.082;8.200;2023-03-05T00:36:29;100753.91;;;3.57;69.93
7200;BME280;3641;49.082;8.200;2023-03-05T00:38:58;100749.59;;;3.33;72.06
7200;BME280;3641;49.082;8.200;2023-03-05T00:41:25;100754.78;;;3.25;72.37
7200;BME280;3641;49.082;8.200;2023-03-05T00:43:51;100763.06;;;3.01;73.29
7200;BME280;3641;49.082;8.200;2023-03-05T00:46:18;100757.13;;;3.18;72.97
7200;BME280;3641;49.082;8.200;2023-03-05T00:48:44;100755.38;;;3.28;71.98
7200;BME280;3641;49.082;8.200;2023-03-05T00:51:11;100745.41;;;2.97;72.83
7200;BME280;3641;49.082;8.200;2023-03-05T00:53:38;100747.72;;;3.01;73.09
7200;BME280;3641;49.082;8.200;2023-03-05T00:56:06;100749.13;;;3.28;71.78
7200;BME280;3641;49.082;8.200;2023-03-05T00:58:33;100739.81;;;3.32;71.65
7200;BME280;3641;49.082;8.200;2023-03-05T01:01:00;100747.56;;;3.14;72.54
7200;BME280;3641;49.082;8.200;2023-03-05T01:03:27;100734.78;;;3.27;71.71
7200;BME280;3641;49.082;8.200;2023-03-05T01:05:54;100730.50;;;3.25;72.11
7200;BME280;3641;49.082;8.200;2023-03-05T01:08:20;100740.22;;;3.16;72.72
7200;BME280;3641;49.082;8.200;2023-03-05T01:10:47;100727.94;;;3.44;70.87
7200;BME280;3641;49.082;8.200;2023-03-05T01:13:14;100724.75;;;3.51;71.36
7200;BME280;3641;49.082;8.200;2023-03-05T01:15:41;100729.13;;;3.31;71.80
7200;BME280;3641;49.082;8.200;2023-03-05T01:18:08;100726.91;;;3.03;72.95
7200;BME280;3641;49.082;8.200;2023-03-05T01:20:34;100717.75;;;3.16;72.57
7200;BME280;3641;49.082;8.200;2023-03-05T01:23:01;100712.41;;;3.04;73.10
7200;BME280;3641;49.082;8.200;2023-03-05T01:25:28;100716.97;;;3.04;73.48
7200;BME280;3641;49.082;8.200;2023-03-05T01:27:54;100702.09;;;3.21;72.60
7200;BME280;3641;49.082;8.200;2023-03-05T01:30:22;100707.22;;;3.24;72.29
7200;BME280;3641;49.082;8.200;2023-03-05T01:32:48;100710.81;;;3.13;72.87
7200;BME280;3641;49.082;8.200;2023-03-05T01:35:17;100700.31;;;2.99;73.37
7200;BME280;3641;49.082;8.200;2023-03-05T01:37:45;100714.31;;;2.93;73.99
7200;BME280;3641;49.082;8.200;2023-03-05T01:40:14;100704.53;;;3.24;71.42
7200;BME280;3641;49.082;8.200;2023-03-05T01:42:44;100702.28;;;3.29;71.75
7200;BME280;3641;49.082;8.200;2023-03-05T01:45:14;100701.16;;;3.32;71.26
7200;BME280;3641;49.082;8.200;2023-03-05T01:47:43;100696.50;;;3.34;72.41
7200;BME280;3641;49.082;8.200;2023-03-05T01:50:13;100700.19;;;3.33;71.54
7200;BME280;3641;49.082;8.200;2023-03-05T01:52:44;100697.69;;;3.41;71.67
7200;BME280;3641;49.082;8.200;2023-03-05T01:55:14;100690.34;;;3.32;72.24
7200;BME280;3641;49.082;8.200;2023-03-05T01:57:44;100688.34;;;3.13;72.87
7200;BME280;3641;49.082;8.200;2023-03-05T02:00:13;100684.25;;;3.30;72.31
7200;BME280;3641;49.082;8.200;2023-03-05T02:02:44;100688.78;;;3.08;73.14
7200;BME280;3641;49.082;8.200;2023-03-05T02:05:12;100681.97;;;3.14;73.26
7200;BME280;3641;49.082;8.200;2023-03-05T02:07:41;100681.09;;;3.24;71.65
7200;BME280;3641;49.082;8.200;2023-03-05T02:10:17;100682.69;;;3.16;73.30
7200;BME280;3641;49.082;8.200;2023-03-05T02:12:46;100687.91;;;3.28;71.58
7200;BME280;3641;49.082;8.200;2023-03-05T02:15:13;100687.31;;;3.25;72.17
7200;BME280;3641;49.082;8.200;2023-03-05T02:17:40;100680.13;;;3.14;73.01
7200;BME280;3641;49.082;8.200;2023-03-05T02:20:10;100680.91;;;3.37;71.05
7200;BME280;3641;49.082;8.200;2023-03-05T02:22:39;100680.31;;;3.01;73.40
7200;BME280;3641;49.082;8.200;2023-03-05T02:25:13;100669.25;;;3.04;74.06
7200;BME280;3641;49.082;8.200;2023-03-05T02:27:42;100671.97;;;3.04;73.66
7200;BME280;3641;49.082;8.200;2023-03-05T02:30:11;100670.81;;;3.18;72.96
7200;BME280;3641;49.082;8.200;2023-03-05T02:32:38;100667.06;;;2.98;74.31
7200;BME280;3641;49.082;8.200;2023-03-05T02:35:05;100661.94;;;2.95;74.11
7200;BME280;3641;49.082;8.200;2023-03-05T02:37:32;100667.06;;;2.98;74.07
7200;BME280;3641;49.082;8.200;2023-03-05T02:39:59;100675.34;;;2.85;74.82
7200;BME280;3641;49.082;8.200;2023-03-05T02:42:26;100656.72;;;2.94;74.55
7200;BME280;3641;49.082;8.200;2023-03-05T02:44:52;100653.19;;;2.82;75.10
7200;BME280;3641;49.082;8.200;2023-03-05T02:47:19;100650.47;;;2.82;75.13
7200;BME280;3641;49.082;8.200;2023-03-05T02:49:45;100648.75;;;2.92;74.90
7200;BME280;3641;49.082;8.200;2023-03-05T02:52:12;100644.06;;;2.94;74.51
7200;BME280;3641;49.082;8.200;2023-03-05T02:54:38;100644.56;;;3.20;73.00
7200;BME280;3641;49.082;8.200;2023-03-05T02:57:06;100641.75;;;2.89;74.49
7200;BME280;3641;49.082;8.200;2023-03-05T02:59:32;100637.22;;;2.90;74.74
7200;BME280;3641;49.082;8.200;2023-03-05T03:01:59;100635.25;;;2.92;74.48
7200;BME280;3641;49.082;8.200;2023-03-05T03:04:25;100628.16;;;3.12;72.95
7200;BME280;3641;49.082;8.200;2023-03-05T03:06:52;100626.38;;;3.01;74.03
7200;BME280;3641;49.082;8.200;2023-03-05T03:09:19;100638.00;;;2.69;75.86
7200;BME280;3641;49.082;8.200;2023-03-05T03:11:45;100631.72;;;2.80;74.89
7200;BME280;3641;49.082;8.200;2023-03-05T03:14:13;100622.34;;;2.75;75.03
7200;BME280;3641;49.082;8.200;2023-03-05T03:16:39;100620.22;;;2.78;75.48
7200;BME280;3641;49.082;8.200;2023-03-05T03:19:06;100630.69;;;2.71;75.70
7200;BME280;3641;49.082;8.200;2023-03-05T03:21:32;100622.81;;;2.80;75.35
7200;BME280;3641;49.082;8.200;2023-03-05T03:23:59;100614.38;;;2.73;75.53
7200;BME280;3641;49.082;8.200;2023-03-05T03:26:25;100614.34;;;3.05;72.50
7200;BME280;3641;49.082;8.200;2023-03-05T03:28:52;100615.06;;;2.86;74.91
7200;BME280;3641;49.082;8.200;2023-03-05T03:31:20;100616.81;;;2.76;75.50
7200;BME280;3641;49.082;8.200;2023-03-05T03:33:47;100611.06;;;2.69;75.92
7200;BME280;3641;49.082;8.200;2023-03-05T03:36:13;100606.38;;;2.83;75.40
7200;BME280;3641;49.082;8.200;2023-03-05T03:38:40;100608.25;;;2.71;76.32
7200;BME280;3641;49.082;8.200;2023-03-05T03:41:07;100603.22;;;2.78;74.77
7200;BME280;3641;49.082;8.200;2023-03-05T03:43:34;100608.63;;;2.66;76.20
7200;BME280;3641;49.082;8.200;2023-03-05T03:46:03;100597.97;;;2.65;76.10
7200;BME280;3641;49.082;8.200;2023-03-05T03:48:31;100601.78;;;2.62;76.79
7200;BME280;3641;49.082;8.200;2023-03-05T03:51:03;100598.72;;;2.67;75.91
7200;BME280;3641;49.082;8.200;2023-03-05T03:53:30;100598.53;;;2.80;75.58
7200;BME280;3641;49.082;8.200;2023-03-05T03:55:57;100598.38;;;3.14;72.13
7200;BME280;3641;49.082;8.200;2023-03-05T03:58:23;100595.06;;;2.89;75.00
7200;BME280;3641;49.082;8.200;2023-03-05T04:00:50;100582.81;;;2.85;74.98
7200;BME280;3641;49.082;8.200;2023-03-05T04:03:16;100587.25;;;2.86;74.00
7200;BME280;3641;49.082;8.200;2023-03-05T04:05:44;100580.50;;;2.80;75.43
7200;BME280;3641;49.082;8.200;2023-03-05T04:08:10;100580.78;;;2.77;75.22
7200;BME280;3641;49.082;8.200;2023-03-05T04:10:37;100577.53;;;2.62;76.22
7200;BME280;3641;49.082;8.200;2023-03-05T04:13:03;100570.88;;;2.66;75.90
7200;BME280;3641;49.082;8.200;2023-03-05T04:15:30;100575.13;;;3.01;73.17
7200;BME280;3641;49.082;8.200;2023-03-05T04:17:57;100574.75;;;3.06;72.77
7200;BME280;3641;49.082;8.200;2023-03-05T04:20:23;100570.81;;;2.89;75.00
7200;BME280;3641;49.082;8.200;2023-03-05T04:22:51;100570.22;;;3.06;72.93
7200;BME280;3641;49.082;8.200;2023-03-05T04:25:17;100571.19;;;3.05;74.20
7200;BME280;3641;49.082;8.200;2023-03-05T04:27:44;100571.19;;;3.05;73.60
7200;BME280;3641;49.082;8.200;2023-03-05T04:30:12;100566.00;;;3.14;72.51
7200;BME280;3641;49.082;8.200;2023-03-05T04:32:39;100567.56;;;2.95;74.66
7200;BME280;3641;49.082;8.200;2023-03-05T04:35:06;100565.16;;;2.92;75.42
7200;BME280;3641;49.082;8.200;2023-03-05T04:37:33;100576.59;;;2.84;75.68
7200;BME280;3641;49.082;8.200;2023-03-05T04:40:01;100574.03;;;2.83;75.30
7200;BME280;3641;49.082;8.200;2023-03-05T04:42:29;100566.91;;;2.82;74.62
7200;BME280;3641;49.082;8.200;2023-03-05T04:44:55;100575.63;;;2.74;75.68
7200;BME280;3641;49.082;8.200;2023-03-05T04:47:22;100562.03;;;2.76;75.98
7200;BME280;3641;49.082;8.200;2023-03-05T04:49:48;100567.47;;;3.18;72.36
7200;BME280;3641;49.082;8.200;2023-03-05T04:52:15;100566.06;;;3.23;72.14
7200;BME280;3641;49.082;8.200;2023-03-05T04:54:43;100562.72;;;3.10;74.15
7200;BME280;3641;49.082;8.200;2023-03-05T04:57:11;100560.47;;;2.94;75.00
7200;BME280;3641;49.082;8.200;2023-03-05T04:59:38;100558.22;;;3.20;72.07
7200;BME280;3641;49.082;8.200;2023-03-05T05:02:04;100556.72;;;2.85;75.49
7200;BME280;3641;49.082;8.200;2023-03-05T05:04:31;100556.88;;;3.05;73.11
7200;BME280;3641;49.082;8.200;2023-03-05T05:06:58;100562.47;;;2.92;75.03
7200;BME280;3641;49.082;8.200;2023-03-05T05:09:24;100561.84;;;2.88;75.54
7200;BME280;3641;49.082;8.200;2023-03-05T05:11:51;100553.44;;;3.24;72.12
7200;BME280;3641;49.082;8.200;2023-03-05T05:14:19;100549.88;;;3.23;72.31
7200;BME280;3641;49.082;8.200;2023-03-05T05:16:47;100550.72;;;2.82;75.24
7200;BME280;3641;49.082;8.200;2023-03-05T05:19:13;100551.94;;;2.89;74.43
7200;BME280;3641;49.082;8.200;2023-03-05T05:21:40;100551.38;;;2.95;74.13
7200;BME280;3641;49.082;8.200;2023-03-05T05:24:06;100548.81;;;2.72;76.50
7200;BME280;3641;49.082;8.200;2023-03-05T05:26:33;100552.72;;;2.80;76.07
7200;BME280;3641;49.082;8.200;2023-03-05T05:28:59;100549.75;;;2.62;76.97
7200;BME280;3641;49.082;8.200;2023-03-05T05:31:27;100543.25;;;2.53;77.30
7200;BME280;3641;49.082;8.200;2023-03-05T05:33:54;100553.22;;;2.73;75.65
7200;BME280;3641;49.082;8.200;2023-03-05T05:36:20;100553.88;;;2.87;74.63
7200;BME280;3641;49.082;8.200;2023-03-05T05:38:47;100552.78;;;2.89;75.00
7200;BME280;3641;49.082;8.200;2023-03-05T05:41:15;100544.88;;;2.77;76.09
7200;BME280;3641;49.082;8.200;2023-03-05T05:43:42;100548.03;;;2.82;75.80
7200;BME280;3641;49.082;8.200;2023-03-05T05:46:11;100548.69;;;2.74;76.71
7200;BME280;3641;49.082;8.200;2023-03-05T05:48:39;100546.28;;;3.13;72.51
7200;BME280;3641;49.082;8.200;2023-03-05T05:51:06;100539.16;;;3.12;72.68
7200;BME280;3641;49.082;8.200;2023-03-05T05:53:33;100545.47;;;3.01;73.54
7200;BME280;3641;49.082;8.200;2023-03-05T05:56:02;100551.56;;;2.82;75.31
7200;BME280;3641;49.082;8.200;2023-03-05T05:58:44;100546.72;;;2.76;76.38
7200;BME280;3641;49.082;8.200;2023-03-05T06:01:14;100544.09;;;2.86;75.65
7200;BME280;3641;49.082;8.200;2023-03-05T06:03:42;100542.03;;;2.57;77.18
7200;BME280;3641;49.082;8.200;2023-03-05T06:06:09;100553.03;;;2.65;76.63
7200;BME280;3641;49.082;8.200;2023-03-05T06:08:36;100535.47;;;2.71;76.04
7200;BME280;3641;49.082;8.200;2023-03-05T06:11:04;100541.41;;;2.53;77.59
7200;BME280;3641;49.082;8.200;2023-03-05T06:13:30;100545.50;;;2.48;78.07
7200;BME280;3641;49.082;8.200;2023-03-05T06:15:58;100545.59;;;3.00;73.11
7200;BME280;3641;49.082;8.200;2023-03-05T06:18:25;100551.63;;;3.03;73.65
7200;BME280;3641;49.082;8.200;2023-03-05T06:20:57;100549.19;;;2.68;76.40
7200;BME280;3641;49.082;8.200;2023-03-05T06:23:25;100548.09;;;2.70;75.82
7200;BME280;3641;49.082;8.200;2023-03-05T06:25:53;100542.91;;;2.79;76.01
7200;BME280;3641;49.082;8.200;2023-03-05T06:28:20;100545.03;;;2.96;75.26
7200;BME280;3641;49.082;8.200;2023-03-05T06:30:47;100547.97;;;3.14;72.80
7200;BME280;3641;49.082;8.200;2023-03-05T06:33:13;100544.28;;;2.73;76.88
7200;BME280;3641;49.082;8.200;2023-03-05T06:35:39;100541.28;;;2.87;76.66
7200;BME280;3641;49.082;8.200;2023-03-05T06:38:07;100540.13;;;2.69;77.22
7200;BME280;3641;49.082;8.200;2023-03-05T06:40:34;100545.19;;;2.62;77.21
7200;BME280;3641;49.082;8.200;2023-03-05T06:43:03;100537.53;;;2.46;78.28
7200;BME280;3641;49.082;8.200;2023-03-05T06:45:29;100541.09;;;2.68;76.29
7200;BME280;3641;49.082;8.200;2023-03-05T06:47:56;100539.88;;;2.93;75.77
7200;BME280;3641;49.082;8.200;2023-03-05T06:50:22;100535.88;;;2.87;76.80
7200;BME280;3641;49.082;8.200;2023-03-05T06:52:49;100535.66;;;2.79;77.02
7200;BME280;3641;49.082;8.200;2023-03-05T06:55:17;100541.88;;;2.91;75.70
7200;BME280;3641;49.082;8.200;2023-03-05T06:57:44;100531.66;;;2.73;76.86
7200;BME280;3641;49.082;8.200;2023-03-05T07:00:11;100533.06;;;2.57;77.89
7200;BME280;3641;49.082;8.200;2023-03-05T07:02:38;100527.28;;;2.40;78.90
7200;BME280;3641;49.082;8.200;2023-03-05T07:05:06;100531.31;;;2.34;78.97
7200;BME280;3641;49.082;8.200;2023-03-05T07:07:33;100534.97;;;2.45;78.58
7200;BME280;3641;49.082;8.200;2023-03-05T07:09:59;100522.09;;;2.48;78.42
7200;BME280;3641;49.082;8.200;2023-03-05T07:12:27;100526.56;;;2.38;79.11
7200;BME280;3641;49.082;8.200;2023-03-05T07:14:53;100521.94;;;2.29;79.86
7200;BME280;3641;49.082;8.200;2023-03-05T07:17:20;100522.50;;;2.65;77.25
7200;BME280;3641;49.082;8.200;2023-03-05T07:19:46;100519.22;;;2.61;78.28
7200;BME280;3641;49.082;8.200;2023-03-05T07:22:13;100520.69;;;2.65;78.12
7200;BME280;3641;49.082;8.200;2023-03-05T07:24:40;100518.50;;;2.59;78.61
7200;BME280;3641;49.082;8.200;2023-03-05T07:27:06;100523.88;;;2.59;78.64
7200;BME280;3641;49.082;8.200;2023-03-05T07:29:34;100519.78;;;2.76;76.37
7200;BME280;3641;49.082;8.200;2023-03-05T07:32:01;100520.38;;;2.80;77.75
7200;BME280;3641;49.082;8.200;2023-03-05T07:34:28;100523.13;;;2.89;76.87
7200;BME280;3641;49.082;8.200;2023-03-05T07:36:54;100521.41;;;3.09;74.38
7200;BME280;3641;49.082;8.200;2023-03-05T07:39:20;100531.19;;;3.32;73.27
7200;BME280;3641;49.082;8.200;2023-03-05T07:41:47;100524.50;;;3.05;76.83
7200;BME280;3641;49.082;8.200;2023-03-05T07:44:15;100516.81;;;3.00;76.90
7200;BME280;3641;49.082;8.200;2023-03-05T07:46:44;100515.63;;;2.93;77.46
7200;BME280;3641;49.082;8.200;2023-03-05T07:49:10;100520.03;;;3.15;75.86
7200;BME280;3641;49.082;8.200;2023-03-05T07:51:39;100518.16;;;3.37;73.63
7200;BME280;3641;49.082;8.200;2023-03-05T07:54:08;100521.00;;;3.14;77.04
7200;BME280;3641;49.082;8.200;2023-03-05T07:56:39;100524.22;;;3.29;74.98
7200;BME280;3641;49.082;8.200;2023-03-05T07:59:09;100524.88;;;3.21;76.97
7200;BME280;3641;49.082;8.200;2023-03-05T08:01:36;100518.44;;;3.34;76.59
7200;BME280;3641;49.082;8.200;2023-03-05T08:04:05;100516.03;;;3.40;76.17
7200;BME280;3641;49.082;8.200;2023-03-05T08:06:32;100519.41;;;3.33;76.93
7200;BME280;3641;49.082;8.200;2023-03-05T08:08:59;100512.72;;;3.58;73.87
7200;BME280;3641;49.082;8.200;2023-03-05T08:11:26;100513.59;;;3.37;76.64
7200;BME280;3641;49.082;8.200;2023-03-05T08:13:53;100503.72;;;3.57;74.26
7200;BME280;3641;49.082;8.200;2023-03-05T08:16:20;100501.34;;;3.54;75.75
7200;BME280;3641;49.082;8.200;2023-03-05T08:18:52;100498.63;;;3.54;75.60
7200;BME280;3641;49.082;8.200;2023-03-05T08:21:22;100506.25;;;3.80;73.07
7200;BME280;3641;49.082;8.200;2023-03-05T08:23:51;100504.88;;;3.55;76.33
7200;BME280;3641;49.082;8.200;2023-03-05T08:26:20;100493.75;;;3.89;72.89
7200;BME280;3641;49.082;8.200;2023-03-05T08:28:47;100494.13;;;3.64;75.67
7200;BME280;3641;49.082;8.200;2023-03-05T08:31:15;100498.44;;;3.77;74.69
7200;BME280;3641;49.082;8.200;2023-03-05T08:33:43;100498.03;;;3.91;74.54
7200;BME280;3641;49.082;8.200;2023-03-05T08:36:10;100493.63;;;4.00;73.85
7200;BME280;3641;49.082;8.200;2023-03-05T08:38:38;100489.50;;;3.86;74.98
7200;BME280;3641;49.082;8.200;2023-03-05T08:41:06;100493.88;;;3.87;74.63
7200;BME280;3641;49.082;8.200;2023-03-05T08:43:33;100492.53;;;4.12;73.14
7200;BME280;3641;49.082;8.200;2023-03-05T08:46:00;100494.97;;;4.25;72.79
7200;BME280;3641;49.082;8.200;2023-03-05T08:48:27;100504.88;;;4.05;74.74
7200;BME280;3641;49.082;8.200;2023-03-05T08:50:54;100499.94;;;4.20;73.20
7200;BME280;3641;49.082;8.200;2023-03-05T08:53:21;100496.81;;;4.25;73.95
7200;BME280;3641;49.082;8.200;2023-03-05T08:55:53;100499.38;;;4.26;73.66
7200;BME280;3641;49.082;8.200;2023-03-05T08:58:20;100490.25;;;4.37;72.98
7200;BME280;3641;49.082;8.200;2023-03-05T09:00:46;100488.56;;;4.46;72.54
7200;BME280;3641;49.082;8.200;2023-03-05T09:03:13;100487.28;;;4.50;72.30
7200;BME280;3641;49.082;8.200;2023-03-05T09:05:39;100481.00;;;4.59;71.72
7200;BME280;3641;49.082;8.200;2023-03-05T09:08:06;100484.56;;;4.69;71.26
7200;BME280;3641;49.082;8.200;2023-03-05T09:10:32;100482.47;;;4.53;73.32
7200;BME280;3641;49.082;8.200;2023-03-05T09:13:00;100479.75;;;4.63;72.29
7200;BME280;3641;49.082;8.200;2023-03-05T09:15:28;100478.59;;;4.76;71.70
7200;BME280;3641;49.082;8.200;2023-03-05T09:17:55;100474.88;;;4.77;71.64
7200;BME280;3641;49.082;8.200;2023-03-05T09:20:22;100474.63;;;4.60;73.16
7200;BME280;3641;49.082;8.200;2023-03-05T09:22:48;100468.06;;;4.72;72.18
7200;BME280;3641;49.082;8.200;2023-03-05T09:25:15;100470.88;;;4.90;71.46
7200;BME280;3641;49.082;8.200;2023-03-05T09:27:42;100465.47;;;4.90;71.08
7200;BME280;3641;49.082;8.200;2023-03-05T09:30:12;100460.31;;;4.97;70.78
7200;BME280;3641;49.082;8.200;2023-03-05T09:32:39;100462.50;;;4.84;71.30
7200;BME280;3641;49.082;8.200;2023-03-05T09:35:08;100460.19;;;4.89;71.46
7200;BME280;3641;49.082;8.200;2023-03-05T09:37:35;100454.47;;;5.02;71.05
7200;BME280;3641;49.082;8.200;2023-03-05T09:40:02;100454.75;;;4.99;71.29
7200;BME280;3641;49.082;8.200;2023-03-05T09:42:42;100448.06;;;5.03;71.29
7200;BME280;3641;49.082;8.200;2023-03-05T09:45:19;100457.72;;;5.05;71.24
7200;BME280;3641;49.082;8.200;2023-03-05T09:47:56;100451.88;;;5.10;70.34
7200;BME280;3641;49.082;8.200;2023-03-05T09:50:39;100456.44;;;5.09;70.61
7200;BME280;3641;49.082;8.200;2023-03-05T09:53:17;100452.28;;;5.15;70.17
7200;BME280;3641;49.082;8.200;2023-03-05T09:55:49;100452.75;;;5.11;70.57
7200;BME280;3641;49.082;8.200;2023-03-05T09:58:18;100445.78;;;5.08;70.84
7200;BME280;3641;49.082;8.200;2023-03-05T10:00:50;100448.72;;;5.15;70.24
7200;BME280;3641;49.082;8.200;2023-03-05T10:03:24;100449.56;;;5.15;70.37
7200;BME280;3641;49.082;8.200;2023-03-05T10:05:59;100440.63;;;5.15;70.17
7200;BME280;3641;49.082;8.200;2023-03-05T10:08:34;100441.91;;;5.20;69.68
7200;BME280;3641;49.082;8.200;2023-03-05T10:11:17;100444.59;;;5.20;69.62
7200;BME280;3641;49.082;8.200;2023-03-05T10:13:48;100445.84;;;5.26;69.46
7200;BME280;3641;49.082;8.200;2023-03-05T10:19:18;100432.72;;;5.31;68.91
7200;BME280;3641;49.082;8.200;2023-03-05T10:21:51;100439.16;;;5.30;69.07
7200;BME280;3641;49.082;8.200;2023-03-05T10:24:24;100430.88;;;5.32;68.74
7200;BME280;3641;49.082;8.200;2023-03-05T10:26:58;100431.91;;;5.21;68.22
7200;BME280;3641;49.082;8.200;2023-03-05T10:29:47;100429.75;;;5.24;69.60
7200;BME280;3641;49.082;8.200;2023-03-05T10:32:28;100435.16;;;5.24;69.25
7200;BME280;3641;49.082;8.200;2023-03-05T10:35:09;100421.34;;;5.27;69.59
7200;BME280;3641;49.082;8.200;2023-03-05T10:38:08;100419.22;;;5.21;69.73
7200;BME280;3641;49.082;8.200;2023-03-05T10:40:41;100425.47;;;5.32;69.30
7200;BME280;3641;49.082;8.200;2023-03-05T10:43:19;100424.59;;;5.31;68.93
7200;BME280;3641;49.082;8.200;2023-03-05T10:45:49;100416.63;;;5.30;69.46
7200;BME280;3641;49.082;8.200;2023-03-05T10:48:26;100412.22;;;5.28;69.55
7200;BME280;3641;49.082;8.200;2023-03-05T10:50:57;100408.50;;;5.30;69.50
7200;BME280;3641;49.082;8.200;2023-03-05T10:53:27;100407.50;;;5.31;69.47
7200;BME280;3641;49.082;8.200;2023-03-05T10:55:54;100401.66;;;5.35;69.17
7200;BME280;3641;49.082;8.200;2023-03-05T10:58:23;100392.94;;;5.41;68.68
7200;BME280;3641;49.082;8.200;2023-03-05T11:01:01;100394.31;;;5.45;69.08
7200;BME280;3641;49.082;8.200;2023-03-05T11:03:54;100388.06;;;5.45;68.91
7200;BME280;3641;49.082;8.200;2023-03-05T11:06:30;100384.66;;;5.43;68.90
7200;BME280;3641;49.082;8.200;2023-03-05T11:09:20;100382.25;;;5.40;69.18
7200;BME280;3641;49.082;8.200;2023-03-05T11:12:04;100373.38;;;5.48;68.44
7200;BME280;3641;49.082;8.200;2023-03-05T11:14:33;100370.06;;;5.54;68.14
7200;BME280;3641;49.082;8.200;2023-03-05T11:19:47;100366.94;;;5.49;68.71
7200;BME280;3641;49.082;8.200;2023-03-05T11:22:15;100365.66;;;5.53;67.99
7200;BME280;3641;49.082;8.200;2023-03-05T11:24:43;100362.34;;;5.59;68.07
7200;BME280;3641;49.082;8.200;2023-03-05T11:27:22;100364.94;;;5.23;67.79
7200;BME280;3641;49.082;8.200;2023-03-05T11:29:49;100359.94;;;5.28;68.35
7200;BME280;3641;49.082;8.200;2023-03-05T11:32:20;100361.66;;;5.29;68.29
7200;BME280;3641;49.082;8.200;2023-03-05T11:34:48;100352.72;;;5.46;68.16
7200;BME280;3641;49.082;8.200;2023-03-05T11:37:22;100355.34;;;5.56;68.00
7200;BME280;3641;49.082;8.200;2023-03-05T11:40:04;100356.53;;;5.54;67.06
7200;BME280;3641;49.082;8.200;2023-03-05T11:42:40;100343.16;;;5.52;67.70
7200;BME280;3641;49.082;8.200;2023-03-05T11:45:13;100353.00;;;5.43;67.46
7200;BME280;3641;49.082;8.200;2023-03-05T11:47:43;100349.06;;;5.38;67.19
7200;BME280;3641;49.082;8.200;2023-03-05T11:50:19;100343.59;;;5.48;68.05
7200;BME280;3641;49.082;8.200;2023-03-05T11:52:47;100342.69;;;5.57;67.26
7200;BME280;3641;49.082;8.200;2023-03-05T11:55:16;100334.81;;;5.63;67.72
7200;BME280;3641;49.082;8.200;2023-03-05T11:57:47;100337.34;;;5.65;66.87
7200;BME280;3641;49.082;8.200;2023-03-05T12:00:18;100325.34;;;5.68;66.40
7200;BME280;3641;49.082;8.200;2023-03-05T12:02:52;100320.81;;;5.68;66.76
7200;BME280;3641;49.082;8.200;2023-03-05T12:05:21;100319.78;;;5.69;66.95
7200;BME280;3641;49.082;8.200;2023-03-05T12:07:49;100318.78;;;5.70;66.79
7200;BME280;3641;49.082;8.200;2023-03-05T12:10:19;100316.44;;;5.75;67.17
7200;BME280;3641;49.082;8.200;2023-03-05T12:12:48;100311.88;;;5.76;66.64
7200;BME280;3641;49.082;8.200;2023-03-05T12:15:28;100309.72;;;5.79;66.56
7200;BME280;3641;49.082;8.200;2023-03-05T12:18:04;100299.66;;;5.72;66.38
7200;BME280;3641;49.082;8.200;2023-03-05T12:20:37;100293.88;;;5.67;66.49
7200;BME280;3641;49.082;8.200;2023-03-05T12:23:11;100295.88;;;5.64;66.42
7200;BME280;3641;49.082;8.200;2023-03-05T12:25:44;100293.78;;;5.76;66.70
7200;BME280;3641;49.082;8.200;2023-03-05T12:28:13;100283.72;;;5.69;65.03
7200;BME280;3641;49.082;8.200;2023-03-05T12:30:55;100284.72;;;5.68;64.89
7200;BME280;3641;49.082;8.200;2023-03-05T12:33:33;100275.28;;;5.72;65.42
7200;BME280;3641;49.082;8.200;2023-03-05T12:36:34;100273.03;;;5.67;65.89
7200;BME280;3641;49.082;8.200;2023-03-05T12:42:39;100265.69;;;5.59;64.47
7200;BME280;3641;49.082;8.200;2023-03-05T12:45:39;100258.66;;;5.67;65.43
7200;BME280;3641;49.082;8.200;2023-03-05T12:48:33;100255.34;;;5.73;64.65
7200;BME280;3641;49.082;8.200;2023-03-05T12:51:11;100252.69;;;5.63;65.41
7200;BME280;3641;49.082;8.200;2023-03-05T12:53:39;100245.28;;;5.65;64.50
7200;BME280;3641;49.082;8.200;2023-03-05T12:56:15;100245.97;;;5.67;64.65
7200;BME280;3641;49.082;8.200;2023-03-05T12:58:46;100245.81;;;5.69;65.43
7200;BME280;3641;49.082;8.200;2023-03-05T13:04:03;100245.50;;;5.72;64.84
7200;BME280;3641;49.082;8.200;2023-03-05T13:06:36;100244.81;;;5.70;65.65
7200;BME280;3641;49.082;8.200;2023-03-05T13:09:13;100237.84;;;5.67;65.16
7200;BME280;3641;49.082;8.200;2023-03-05T13:11:42;100229.03;;;5.65;65.63
7200;BME280;3641;49.082;8.200;2023-03-05T13:14:27;100231.84;;;5.55;65.08
7200;BME280;3641;49.082;8.200;2023-03-05T13:16:54;100225.69;;;5.53;64.53
7200;BME280;3641;49.082;8.200;2023-03-05T13:19:21;100226.16;;;5.67;65.78
7200;BME280;3641;49.082;8.200;2023-03-05T13:21:56;100233.03;;;5.79;64.65
7200;BME280;3641;49.082;8.200;2023-03-05T13:24:24;100225.59;;;5.81;65.47
7200;BME280;3641;49.082;8.200;2023-03-05T13:26:51;100226.16;;;5.67;65.59
7200;BME280;3641;49.082;8.200;2023-03-05T13:29:19;100219.25;;;5.72;65.63
7200;BME280;3641;49.082;8.200;2023-03-05T13:31:47;100215.19;;;5.68;65.25
7200;BME280;3641;49.082;8.200;2023-03-05T13:34:17;100216.56;;;5.72;65.83
7200;BME280;3641;49.082;8.200;2023-03-05T13:36:45;100220.91;;;5.65;65.80
7200;BME280;3641;49.082;8.200;2023-03-05T13:39:21;100207.75;;;5.70;66.36
7200;BME280;3641;49.082;8.200;2023-03-05T13:42:00;100205.41;;;5.75;65.94
7200;BME280;3641;49.082;8.200;2023-03-05T13:44:28;100205.63;;;5.82;65.26
7200;BME280;3641;49.082;8.200;2023-03-05T13:47:06;100204.94;;;5.80;63.85